Time;durP1;ratioP1;P1;durP2;ratioP2;P2;SDS_P1;SDS_P2;PMS_P1;PMS_P2;Temp;Humidity;BMP_temperature;BMP_pressure;BME280_temperature;BME280_humidity;BME280_pressure;Samples;Min_cycle;Max_cycle;Signal;HPM_P1;HPM_P2
2021/06/23 00:02:22;;;;;;;5.03;2.90;;;13.70;1.00;;;;;;6138002;23;20159;-65
2021/06/23 00:04:47;;;;;;;10.67;5.17;;;13.70;1.00;;;;;;6137807;23;20163;-67
2021/06/23 00:07:13;;;;;;;10.30;4.90;;;13.80;1.00;;;;;;6137553;23;20225;-68
2021/06/23 00:09:39;;;;;;;6.83;3.20;;;13.80;1.00;;;;;;6137593;23;20166;-68
2021/06/23 00:12:05;;;;;;;7.70;3.37;;;13.70;1.00;;;;;;6137751;23;20155;-68
2021/06/23 00:14:31;;;;;;;6.93;3.40;;;13.70;1.00;;;;;;6137572;23;20391;-68
2021/06/23 00:16:57;;;;;;;5.90;3.60;;;13.70;1.00;;;;;;6137540;23;20250;-68
2021/06/23 00:19:23;;;;;;;4.97;3.30;;;13.60;1.00;;;;;;6137430;23;20238;-68
2021/06/23 00:21:49;;;;;;;5.65;4.07;;;13.70;1.00;;;;;;6151289;23;20162;-68
2021/06/23 00:24:14;;;;;;;5.23;3.30;;;13.70;1.00;;;;;;6137363;23;20170;-68
2021/06/23 00:26:40;;;;;;;5.33;3.60;;;13.70;3.80;;;;;;6137307;23;20249;-68
2021/06/23 00:29:07;;;;;;;7.80;3.70;;;13.70;2.90;;;;;;6137251;23;20166;-68
2021/06/23 00:31:33;;;;;;;11.95;3.88;;;13.70;22.60;;;;;;6137505;23;20155;-68
2021/06/23 00:34:02;;;;;;;5.13;3.75;;;13.80;22.40;;;;;;6137824;23;20151;-68
2021/06/23 00:36:28;;;;;;;7.70;3.45;;;13.70;27.90;;;;;;6127862;23;20242;-68
2021/06/23 00:38:53;;;;;;;6.43;3.80;;;13.60;57.70;;;;;;6127622;23;20478;-68
2021/06/23 00:41:19;;;;;;;5.10;3.60;;;13.50;59.80;;;;;;6137546;23;20562;-68
2021/06/23 00:43:46;;;;;;;9.70;4.37;;;13.50;99.90;;;;;;6127337;23;20180;-68
2021/06/23 00:46:13;;;;;;;4.10;3.50;;;13.40;99.90;;;;;;6127778;23;20187;-68
2021/06/23 00:48:39;;;;;;;7.10;4.50;;;13.40;99.90;;;;;;6127590;23;20159;-68
2021/06/23 00:51:06;;;;;;;7.50;3.95;;;13.40;99.90;;;;;;6127862;23;20163;-68
2021/06/23 00:53:32;;;;;;;11.47;4.13;;;13.40;99.90;;;;;;6137291;23;20182;-68
2021/06/23 00:55:59;;;;;;;4.00;3.45;;;13.60;99.90;;;;;;6137320;23;20395;-68
2021/06/23 00:58:26;;;;;;;11.98;4.20;;;13.70;99.90;;;;;;6136954;23;20155;-68
2021/06/23 01:00:54;;;;;;;7.00;3.67;;;13.60;99.90;;;;;;6137259;23;20605;-68
2021/06/23 01:03:21;;;;;;;6.38;3.10;;;13.70;99.90;;;;;;6127630;23;20225;-68
2021/06/23 01:05:46;;;;;;;9.63;3.70;;;13.90;91.30;;;;;;6137013;23;20206;-68
2021/06/23 01:08:12;;;;;;;6.20;4.00;;;14.00;46.40;;;;;;6136948;23;20155;-68
2021/06/23 01:10:38;;;;;;;7.70;3.40;;;14.10;16.40;;;;;;6150644;23;20200;-68
2021/06/23 01:13:25;;;;;;;5.90;3.65;;;14.20;4.70;;;;;;6137058;23;20386;-68
2021/06/23 01:15:53;;;;;;;7.10;3.55;;;14.30;1.00;;;;;;6137130;23;20297;-68
2021/06/23 01:18:19;;;;;;;9.65;3.55;;;14.30;1.00;;;;;;6136750;23;20218;-68
2021/06/23 01:20:47;;;;;;;7.37;4.00;;;14.20;1.00;;;;;;6137047;23;20159;-68
2021/06/23 01:23:16;;;;;;;6.63;3.35;;;14.20;3.30;;;;;;6137128;23;20386;-68
2021/06/23 01:25:43;;;;;;;5.50;2.97;;;14.20;1.00;;;;;;6136949;23;20182;-68
2021/06/23 01:28:09;;;;;;;4.35;3.10;;;14.10;22.00;;;;;;6136707;23;20209;-68
2021/06/23 01:30:34;;;;;;;7.88;4.22;;;13.90;74.10;;;;;;6136942;23;20454;-68
2021/06/23 01:33:02;;;;;;;14.17;5.20;;;13.80;99.90;;;;;;6137205;23;20165;-68
2021/06/23 01:35:30;;;;;;;6.72;3.20;;;13.70;99.90;;;;;;6127388;23;20455;-68
2021/06/23 01:37:56;;;;;;;6.43;3.97;;;13.90;99.90;;;;;;6127223;23;20163;-68
2021/06/23 01:40:22;;;;;;;5.40;3.17;;;13.80;99.90;;;;;;6136708;23;20154;-68
2021/06/23 01:42:47;;;;;;;6.90;3.90;;;14.00;99.90;;;;;;6136849;23;20174;-68
2021/06/23 01:45:16;;;;;;;6.97;3.90;;;14.10;99.90;;;;;;6127393;23;20166;-68
2021/06/23 01:47:42;;;;;;;5.07;3.72;;;14.20;99.90;;;;;;6136673;23;20162;-68
2021/06/23 01:50:09;;;;;;;8.97;3.50;;;14.40;76.70;;;;;;6136685;23;20476;-68
2021/06/23 01:52:39;;;;;;;8.25;3.95;;;14.40;33.90;;;;;;6150313;23;20250;-68
2021/06/23 01:55:05;;;;;;;10.68;3.45;;;14.40;29.50;;;;;;6126843;23;20162;-68
2021/06/23 01:57:32;;;;;;;6.95;3.72;;;14.30;53.50;;;;;;6136543;23;20222;-68
2021/06/23 01:59:58;;;;;;;8.43;3.72;;;14.30;99.90;;;;;;6136284;23;20173;-68
2021/06/23 02:02:27;;;;;;;8.57;3.40;;;14.40;99.90;;;;;;6150305;23;20246;-68
2021/06/23 02:05:03;;;;;;;7.25;3.45;;;14.50;99.40;;;;;;6136734;23;20166;-68
2021/06/23 02:07:40;;;;;;;7.20;3.80;;;14.50;99.90;;;;;;6126647;23;20179;-68
2021/06/23 02:10:24;;;;;;;10.55;4.40;;;14.50;99.90;;;;;;6136571;23;20547;-68
2021/06/23 02:13:22;;;;;;;8.25;4.10;;;14.40;99.90;;;;;;6136681;23;20154;-68
2021/06/23 02:15:50;;;;;;;4.20;3.40;;;14.20;99.90;;;;;;6136585;23;20143;-68
2021/06/23 02:18:15;;;;;;;5.30;3.35;;;14.30;99.90;;;;;;6136685;23;20159;-68
2021/06/23 02:20:42;;;;;;;8.13;4.10;;;14.50;99.90;;;;;;6136647;23;20453;-68
2021/06/23 02:23:10;;;;;;;9.30;3.88;;;14.70;99.90;;;;;;6136620;23;20151;-68
2021/06/23 02:25:37;;;;;;;6.35;4.10;;;14.60;99.90;;;;;;6136312;23;20204;-68
2021/06/23 02:28:04;;;;;;;5.80;4.13;;;14.70;99.90;;;;;;6126954;23;20155;-68
2021/06/23 02:30:29;;;;;;;7.53;4.07;;;14.70;99.90;;;;;;6136441;23;20241;-68
2021/06/23 02:32:56;;;;;;;7.13;4.73;;;14.60;99.90;;;;;;6150193;23;20515;-69
2021/06/23 02:35:27;;;;;;;7.40;3.92;;;14.40;99.90;;;;;;6136521;23;20155;-69
2021/06/23 02:37:53;;;;;;;6.35;4.60;;;14.40;99.90;;;;;;6136437;23;20230;-69
2021/06/23 02:40:19;;;;;;;7.43;4.70;;;14.40;99.90;;;;;;6136366;23;20178;-69
2021/06/23 02:42:45;;;;;;;5.73;3.83;;;14.40;99.90;;;;;;6126792;23;20539;-68
2021/06/23 02:45:13;;;;;;;6.07;4.82;;;14.50;99.90;;;;;;6136447;23;20527;-69
2021/06/23 02:47:38;;;;;;;8.15;5.78;;;14.50;99.90;;;;;;6136615;23;20171;-69
2021/06/23 02:50:06;;;;;;;14.23;5.83;;;14.60;99.90;;;;;;6136797;23;20152;-68
2021/06/23 02:52:34;;;;;;;8.60;4.40;;;14.60;99.90;;;;;;6127044;23;20383;-68
2021/06/23 02:55:01;;;;;;;9.02;4.25;;;14.40;99.90;;;;;;6136449;23;20159;-68
2021/06/23 02:57:27;;;;;;;10.48;4.93;;;14.40;99.90;;;;;;6136415;23;20163;-68
2021/06/23 02:59:53;;;;;;;10.53;5.23;;;14.40;99.90;;;;;;6136276;23;20466;-69
2021/06/23 03:02:19;;;;;;;6.82;4.05;;;14.30;99.90;;;;;;6126955;23;20234;-70
2021/06/23 03:04:49;;;;;;;7.27;5.10;;;14.30;99.90;;;;;;6136465;23;20598;-68
2021/06/23 03:07:16;;;;;;;6.70;4.40;;;14.20;99.90;;;;;;6128021;23;20426;-69
2021/06/23 03:09:43;;;;;;;13.38;5.60;;;14.10;99.90;;;;;;6138117;23;20495;-69
2021/06/23 03:12:10;;;;;;;8.30;4.32;;;14.30;99.90;;;;;;6151652;23;20262;-68
2021/06/23 03:14:36;;;;;;;7.53;5.03;;;14.40;99.90;;;;;;6151683;23;20162;-67
2021/06/23 03:17:02;;;;;;;6.57;4.37;;;14.50;99.90;;;;;;6137910;23;20178;-67
2021/06/23 03:19:28;;;;;;;8.33;4.53;;;14.50;99.90;;;;;;6128355;23;20876;-68
2021/06/23 03:21:53;;;;;;;8.50;4.60;;;14.50;99.90;;;;;;6138128;23;20159;-68
2021/06/23 03:24:20;;;;;;;6.97;4.63;;;14.70;99.90;;;;;;6138054;23;20151;-68
2021/06/23 03:26:45;;;;;;;7.68;4.55;;;14.70;99.90;;;;;;6137697;23;20171;-68
2021/06/23 03:29:27;;;;;;;12.87;5.10;;;14.70;99.90;;;;;;6151425;23;20159;-67
2021/06/23 03:31:53;;;;;;;15.25;4.60;;;14.60;99.90;;;;;;6102815;23;20161;-67
2021/06/23 03:34:18;;;;;;;7.93;4.90;;;14.80;99.90;;;;;;6136927;23;20230;-67
2021/06/23 03:36:44;;;;;;;6.70;4.33;;;14.70;99.90;;;;;;6137848;23;20169;-67
2021/06/23 03:39:09;;;;;;;9.43;4.57;;;14.70;99.90;;;;;;6128297;23;20280;-67
2021/06/23 03:41:35;;;;;;;8.97;5.17;;;14.80;99.90;;;;;;6138043;23;20606;-67
2021/06/23 03:44:00;;;;;;;12.07;4.87;;;14.70;99.90;;;;;;6137896;23;20245;-67
2021/06/23 03:46:26;;;;;;;7.27;4.20;;;14.60;99.90;;;;;;6137676;23;20175;-67
2021/06/23 03:48:52;;;;;;;8.63;4.60;;;14.50;99.90;;;;;;6138033;23;20155;-67
2021/06/23 03:51:18;;;;;;;7.50;3.90;;;14.40;99.90;;;;;;6137892;23;20182;-67
2021/06/23 03:53:43;;;;;;;10.60;4.50;;;14.30;99.90;;;;;;6137713;23;20147;-67
2021/06/23 03:56:09;;;;;;;6.10;3.80;;;14.30;99.90;;;;;;6128308;23;20163;-67
2021/06/23 03:58:34;;;;;;;10.87;4.97;;;14.30;99.90;;;;;;6137426;23;20555;-67
2021/06/23 04:01:00;;;;;;;6.83;4.30;;;14.30;99.90;;;;;;6126534;23;20185;-68
2021/06/23 04:03:26;;;;;;;10.53;4.57;;;14.20;99.90;;;;;;6137626;23;20159;-67
2021/06/23 04:05:51;;;;;;;9.60;4.13;;;14.50;99.90;;;;;;6137616;23;20941;-68
2021/06/23 04:08:17;;;;;;;6.77;4.00;;;14.40;99.90;;;;;;6137372;23;20179;-68
2021/06/23 04:10:42;;;;;;;11.40;4.70;;;14.50;99.90;;;;;;6137470;23;20159;-67
2021/06/23 04:13:08;;;;;;;12.37;5.23;;;14.50;99.90;;;;;;6128156;23;20155;-67
2021/06/23 04:15:33;;;;;;;6.47;4.40;;;14.70;99.90;;;;;;6137688;23;20262;-67
2021/06/23 04:17:59;;;;;;;13.30;4.40;;;15.00;99.90;;;;;;6137086;23;20174;-68
2021/06/23 04:20:24;;;;;;;6.30;4.80;;;15.30;99.90;;;;;;6137386;23;20455;-68
2021/06/23 04:22:50;;;;;;;7.23;4.20;;;15.60;78.50;;;;;;6137414;23;20155;-67
2021/06/23 04:25:16;;;;;;;8.37;4.03;;;16.20;1.00;;;;;;6137341;23;20166;-67
2021/06/23 04:27:42;;;;;;;11.50;5.00;;;17.10;1.00;;;;;;6127856;23;20239;-67
2021/06/23 04:30:11;;;;;;;9.87;4.17;;;17.10;99.90;;;;;;6137140;23;20238;-68
2021/06/23 04:32:37;;;;;;;10.60;5.60;;;16.80;99.90;;;;;;6137417;23;20151;-68
2021/06/23 04:35:06;;;;;;;7.70;3.90;;;16.40;1.00;;;;;;6137446;23;20391;-68
2021/06/23 04:37:35;;;;;;;9.63;4.28;;;16.10;1.00;;;;;;6127675;23;20163;-68
2021/06/23 04:40:07;;;;;;;5.88;3.90;;;16.00;1.00;;;;;;6137216;23;20155;-68
2021/06/23 04:42:36;;;;;;;8.93;4.13;;;15.80;1.00;;;;;;6137357;23;20139;-68
2021/06/23 04:45:05;;;;;;;7.60;4.00;;;15.60;1.00;;;;;;6137311;23;20530;-68
2021/06/23 04:47:31;;;;;;;8.27;4.27;;;15.50;2.30;;;;;;6127116;23;20549;-68
2021/06/23 04:49:56;;;;;;;9.20;3.77;;;15.30;57.30;;;;;;6137050;23;20400;-68
2021/06/23 04:52:22;;;;;;;6.33;4.63;;;15.40;55.90;;;;;;6137498;23;20837;-69
2021/06/23 04:54:47;;;;;;;10.57;6.53;;;15.40;95.40;;;;;;6136621;23;20454;-71
2021/06/23 04:57:13;;;;;;;5.63;4.07;;;15.40;55.10;;;;;;6136990;23;20586;-71
2021/06/23 04:59:39;;;;;;;6.57;4.10;;;15.40;86.40;;;;;;6150514;23;20395;-69
2021/06/23 05:02:04;;;;;;;10.43;4.43;;;15.60;83.40;;;;;;6137186;23;20159;-69
2021/06/23 05:04:30;;;;;;;6.63;4.00;;;15.80;14.50;;;;;;6137491;23;20183;-69
2021/06/23 05:06:55;;;;;;;12.10;4.40;;;15.80;1.00;;;;;;6135736;23;20241;-69
2021/06/23 05:09:21;;;;;;;9.47;4.00;;;15.80;1.00;;;;;;6125983;23;20592;-69
2021/06/23 05:11:47;;;;;;;5.90;4.10;;;15.70;1.00;;;;;;6137025;23;20155;-69
2021/06/23 05:14:12;;;;;;;7.97;4.80;;;15.90;1.00;;;;;;6127546;23;20195;-69
2021/06/23 05:16:38;;;;;;;6.63;3.87;;;15.90;1.00;;;;;;6136892;23;20238;-69
2021/06/23 05:19:04;;;;;;;10.47;3.80;;;16.00;1.00;;;;;;6136744;23;20173;-69
2021/06/23 05:21:36;;;;;;;9.60;4.27;;;16.10;1.00;;;;;;6136880;23;20159;-69
2021/06/23 05:24:03;;;;;;;6.32;4.20;;;16.20;1.00;;;;;;6136801;23;20901;-69
2021/06/23 05:26:29;;;;;;;7.87;4.67;;;16.20;1.00;;;;;;6136420;23;20197;-69
2021/06/23 05:28:57;;;;;;;10.73;3.47;;;16.60;1.00;;;;;;6097404;23;20422;-69
2021/06/23 05:31:22;;;;;;;9.03;3.43;;;17.70;99.90;;;;;;6107409;23;20391;-69
2021/06/23 05:33:48;;;;;;;4.90;3.00;;;19.70;37.20;;;;;;6107535;23;20564;-70
2021/06/23 05:36:13;;;;;;;12.43;4.50;;;20.70;1.00;;;;;;6107542;23;20202;-69
2021/06/23 05:38:39;;;;;;;9.17;3.80;;;19.80;1.00;;;;;;6107306;23;20178;-69
2021/06/23 05:41:04;;;;;;;13.73;5.20;;;19.10;1.00;;;;;;6107608;23;20170;-69
2021/06/23 05:43:30;;;;;;;7.17;4.03;;;18.30;1.00;;;;;;6107277;23;20193;-69
2021/06/23 05:45:56;;;;;;;7.60;4.50;;;17.50;16.70;;;;;;6106960;23;20251;-69
2021/06/23 05:48:21;;;;;;;9.33;4.43;;;17.50;99.90;;;;;;6107036;23;20156;-69
2021/06/23 05:50:47;;;;;;;8.80;4.30;;;17.60;99.90;;;;;;6096324;23;20218;-69
2021/06/23 05:53:13;;;;;;;7.17;3.60;;;17.40;99.90;;;;;;6107157;23;20151;-69
2021/06/23 05:55:40;;;;;;;8.47;4.20;;;17.70;99.90;;;;;;6107203;23;20230;-69
2021/06/23 05:58:06;;;;;;;9.53;4.73;;;18.20;2.30;;;;;;6106796;23;20156;-69
2021/06/23 06:00:32;;;;;;;6.47;3.37;;;19.70;1.00;;;;;;6107130;23;20454;-69
2021/06/23 06:02:57;;;;;;;9.53;4.37;;;21.50;99.90;;;;;;6107157;23;20387;-70
2021/06/23 06:05:23;;;;;;;6.43;3.63;;;21.50;99.90;;;;;;6120509;23;20183;-69
2021/06/23 06:07:52;;;;;;;9.17;3.97;;;20.30;1.00;;;;;;6107116;23;20202;-69
2021/06/23 06:10:17;;;;;;;12.90;4.70;;;21.20;1.00;;;;;;6107111;23;20156;-69
2021/06/23 06:12:43;;;;;;;6.00;3.13;;;20.80;99.90;;;;;;6107334;23;20399;-69
2021/06/23 06:15:09;;;;;;;8.07;3.07;;;20.80;99.90;;;;;;6107053;23;20156;-69
2021/06/23 06:17:35;;;;;;;4.73;2.80;;;21.10;1.00;;;;;;6097769;23;20164;-69
2021/06/23 06:20:03;;;;;;;10.43;4.17;;;20.70;99.90;;;;;;6097518;23;20399;-69
2021/06/23 06:22:28;;;;;;;10.07;4.40;;;20.50;1.00;;;;;;6107065;23;20391;-69
2021/06/23 06:24:57;;;;;;;10.10;4.00;;;20.90;1.00;;;;;;6107089;23;20407;-69
2021/06/23 06:27:22;;;;;;;9.57;4.10;;;22.40;1.00;;;;;;6106871;23;20179;-69
2021/06/23 06:29:49;;;;;;;9.83;3.73;;;21.10;1.00;;;;;;6106815;23;20380;-70
2021/06/23 06:32:14;;;;;;;9.80;4.60;;;20.20;1.00;;;;;;6106749;23;20156;-75
2021/06/23 06:34:40;;;;;;;8.23;3.23;;;20.30;1.00;;;;;;6095053;23;20425;-77
2021/06/23 06:37:05;;;;;;;7.53;3.50;;;19.80;99.90;;;;;;6106367;23;20197;-67
2021/06/23 06:39:31;;;;;;;6.10;3.50;;;19.90;1.00;;;;;;6097434;23;20194;-67
2021/06/23 06:41:56;;;;;;;9.70;3.97;;;20.10;1.00;;;;;;6108341;23;20159;-67
2021/06/23 06:44:22;;;;;;;7.60;3.60;;;20.40;1.00;;;;;;6108812;23;20159;-75
2021/06/23 06:46:48;;;;;;;6.83;4.40;;;20.80;1.00;;;;;;6097928;23;20195;-72
2021/06/23 06:49:14;;;;;;;9.37;4.27;;;21.00;1.00;;;;;;6109076;23;20391;-75
2021/06/23 06:51:40;;;;;;;7.60;3.60;;;20.50;1.00;;;;;;6122656;23;20586;-74
2021/06/23 06:54:05;;;;;;;13.93;4.30;;;20.30;1.00;;;;;;6109450;23;20562;-70
2021/06/23 06:56:31;;;;;;;7.03;4.70;;;19.80;1.00;;;;;;6108836;23;20423;-68
2021/06/23 06:58:56;;;;;;;13.60;6.00;;;19.20;1.00;;;;;;6097872;23;20567;-69
2021/06/23 07:01:22;;;;;;;6.70;3.70;;;19.10;1.00;;;;;;6122490;23;20163;-76
2021/06/23 07:03:48;;;;;;;6.93;3.90;;;19.20;1.00;;;;;;6109293;23;20217;-74
2021/06/23 07:06:14;;;;;;;12.97;4.67;;;19.70;1.00;;;;;;6124342;23;20225;-74
2021/06/23 07:08:39;;;;;;;8.07;4.30;;;19.80;1.00;;;;;;6110879;23;20387;-72
2021/06/23 07:11:05;;;;;;;5.53;3.40;;;19.30;1.00;;;;;;6108921;23;20156;-71
2021/06/23 07:13:30;;;;;;;6.83;3.80;;;19.30;1.00;;;;;;6109991;23;20160;-72
2021/06/23 07:15:56;;;;;;;10.50;4.10;;;19.30;99.90;;;;;;6109201;23;20318;-73
2021/06/23 07:18:21;;;;;;;11.37;4.43;;;20.10;99.90;;;;;;6122124;23;20164;-72
2021/06/23 07:20:47;;;;;;;9.23;3.80;;;20.30;99.90;;;;;;6108191;23;20504;-76
2021/06/23 07:23:13;;;;;;;9.07;4.47;;;19.70;1.00;;;;;;6122207;23;20622;-73
2021/06/23 07:25:38;;;;;;;9.37;3.97;;;19.70;1.00;;;;;;6108524;23;20250;-72
2021/06/23 07:28:04;;;;;;;7.40;3.80;;;21.30;99.90;;;;;;6108491;23;20199;-72
2021/06/23 07:30:30;;;;;;;10.00;3.80;;;21.60;99.90;;;;;;6108468;23;20166;-75
2021/06/23 07:32:59;;;;;;;7.53;4.10;;;21.20;1.00;;;;;;6108563;23;20578;-69
2021/06/23 07:38:14;;;;;;;6.87;3.97;;;20.30;99.90;;;;;;6108122;23;20391;-83
2021/06/23 07:41:13;;;;;;;10.07;3.90;;;20.10;99.90;;;;;;6123605;23;20422;-73
2021/06/23 07:43:32;;;;;;;10.43;3.77;;;20.10;99.90;;;;;;6098407;23;20407;-73
2021/06/23 07:45:59;;;;;;;5.53;3.33;;;19.70;1.00;;;;;;6121684;23;20415;-70
2021/06/23 07:48:30;;;;;;;6.00;4.37;;;19.50;1.00;;;;;;6097747;23;20148;-69
2021/06/23 07:51:21;;;;;;;8.30;3.53;;;19.20;1.00;;;;;;6107172;23;20589;-71
2021/06/23 08:09:46;;;;;;;8.77;3.87;;;20.20;1.00;;;;;;6108053;23;20455;-70
2021/06/23 08:14:38;;;;;;;5.40;2.80;;;20.50;1.00;;;;;;6108407;23;20395;-71
2021/06/23 08:17:07;;;;;;;7.40;3.43;;;21.10;1.00;;;;;;6121108;23;20175;-71
2021/06/23 08:19:36;;;;;;;5.43;3.30;;;20.70;99.90;;;;;;6108154;23;20458;-72
2021/06/23 08:22:04;;;;;;;4.47;3.20;;;20.30;99.90;;;;;;6107895;23;20929;-71
2021/06/23 08:24:32;;;;;;;9.27;3.23;;;19.80;1.00;;;;;;6107577;23;20461;-70
2021/06/23 08:26:57;;;;;;;6.10;2.77;;;19.70;99.90;;;;;;6107796;23;20850;-70
2021/06/23 08:29:22;;;;;;;6.90;3.17;;;19.70;1.00;;;;;;6106772;23;20423;-70
2021/06/23 08:31:48;;;;;;;4.10;2.50;;;19.70;1.00;;;;;;6107661;23;20156;-69
2021/06/23 08:34:14;;;;;;;4.70;3.80;;;20.00;99.90;;;;;;6121246;23;20223;-69
2021/06/23 08:36:39;;;;;;;5.73;3.40;;;20.50;1.00;;;;;;6108138;23;20152;-71
2021/06/23 08:39:05;;;;;;;6.70;2.87;;;20.70;1.00;;;;;;6107658;23;20159;-69
2021/06/23 08:41:30;;;;;;;8.97;3.30;;;20.00;99.90;;;;;;6121087;23;20186;-69
2021/06/23 08:44:00;;;;;;;4.90;2.90;;;20.40;1.00;;;;;;6098316;23;20171;-70
2021/06/23 08:46:26;;;;;;;5.17;3.10;;;19.80;99.90;;;;;;6107433;23;20203;-70
2021/06/23 08:48:52;;;;;;;7.43;3.30;;;19.20;1.00;;;;;;6097838;23;20391;-71
2021/06/23 08:51:21;;;;;;;5.47;2.90;;;19.60;99.90;;;;;;6107576;23;20886;-69
2021/06/23 08:53:46;;;;;;;7.97;3.50;;;19.80;1.00;;;;;;6107721;23;20406;-72
2021/06/23 08:56:12;;;;;;;6.50;2.90;;;20.70;99.90;;;;;;6107785;23;20400;-74
2021/06/23 08:58:38;;;;;;;4.47;2.10;;;21.20;99.90;;;;;;6106890;23;20156;-72
2021/06/23 09:01:04;;;;;;;5.30;3.10;;;21.20;66.20;;;;;;6107475;23;20163;-72
2021/06/23 09:03:29;;;;;;;7.10;3.30;;;21.00;78.40;;;;;;6098102;23;20163;-72
2021/06/23 09:05:57;;;;;;;6.37;2.80;;;20.60;1.00;;;;;;6107054;23;20867;-72
2021/06/23 09:08:34;;;;;;;8.27;3.40;;;20.20;99.90;;;;;;6095957;23;20167;-69
2021/06/23 09:11:01;;;;;;;7.00;2.90;;;19.80;1.00;;;;;;6107242;23;20822;-70
2021/06/23 09:13:28;;;;;;;5.20;2.70;;;19.90;1.00;;;;;;6107397;23;20388;-74
2021/06/23 09:16:02;;;;;;;9.80;4.00;;;20.60;99.90;;;;;;6097753;23;20392;-68
2021/06/23 09:18:34;;;;;;;7.83;4.10;;;21.40;1.00;;;;;;6107274;23;20395;-71
2021/06/23 09:21:16;;;;;;;4.70;2.40;;;21.50;99.90;;;;;;6098380;23;20672;-72
2021/06/23 09:23:46;;;;;;;5.23;3.93;;;21.10;1.00;;;;;;6106186;23;20415;-66
2021/06/23 09:26:19;;;;;;;5.63;2.70;;;20.30;96.50;;;;;;6097170;23;20435;-65
2021/06/23 09:29:03;;;;;;;7.17;3.90;;;20.20;99.90;;;;;;6096094;23;20527;-68
2021/06/23 09:31:57;;;;;;;8.07;3.60;;;20.60;99.90;;;;;;6105996;23;20376;-68
2021/06/23 09:34:29;;;;;;;5.40;2.93;;;21.20;1.00;;;;;;6107693;23;20399;-69
2021/06/23 09:36:56;;;;;;;6.87;3.23;;;21.20;99.90;;;;;;6120648;23;20431;-69
2021/06/23 09:39:30;;;;;;;4.90;2.30;;;21.30;1.00;;;;;;6097241;23;20467;-70
2021/06/23 09:41:57;;;;;;;4.97;2.43;;;21.50;1.00;;;;;;6107242;23;20403;-70
2021/06/23 09:44:24;;;;;;;4.73;2.37;;;21.60;1.00;;;;;;6120565;23;20459;-69
2021/06/23 09:46:50;;;;;;;2.37;2.13;;;21.70;99.90;;;;;;6097173;23;20431;-69
2021/06/23 09:49:25;;;;;;;6.53;2.40;;;22.40;99.90;;;;;;6097528;23;20397;-71
2021/06/23 09:51:50;;;;;;;2.20;1.90;;;22.80;99.90;;;;;;6107196;23;20394;-74
2021/06/23 09:54:27;;;;;;;4.63;2.40;;;21.90;99.90;;;;;;6107080;23;20388;-72
2021/06/23 09:56:55;;;;;;;3.87;2.23;;;21.50;99.90;;;;;;6106923;23;20148;-73
2021/06/23 09:59:26;;;;;;;3.33;1.77;;;22.00;99.90;;;;;;6106873;23;20399;-73
2021/06/23 10:01:51;;;;;;;4.03;1.80;;;22.40;99.90;;;;;;6107100;23;20404;-73
2021/06/23 10:04:17;;;;;;;5.40;2.13;;;22.60;60.80;;;;;;6120606;23;20403;-73
2021/06/23 10:06:46;;;;;;;3.63;2.20;;;22.90;1.00;;;;;;6107200;23;20187;-73
2021/06/23 10:09:19;;;;;;;4.40;2.07;;;22.10;99.90;;;;;;6107139;23;20151;-73
2021/06/23 10:11:46;;;;;;;7.40;2.60;;;22.00;99.90;;;;;;6097591;23;20380;-73
2021/06/23 10:14:12;;;;;;;3.10;2.53;;;21.90;99.90;;;;;;6106993;23;20918;-71
2021/06/23 10:16:38;;;;;;;4.37;2.20;;;21.60;1.00;;;;;;6106224;23;20419;-68
2021/06/23 10:19:06;;;;;;;4.60;2.80;;;20.80;99.90;;;;;;6096773;23;20586;-68
2021/06/23 10:21:32;;;;;;;4.97;3.40;;;20.80;99.90;;;;;;6106501;23;20482;-69
2021/06/23 10:23:59;;;;;;;6.60;3.20;;;21.20;99.90;;;;;;6107469;23;20392;-69
2021/06/23 10:26:29;;;;;;;8.13;3.63;;;21.70;1.00;;;;;;6097388;23;20462;-69
2021/06/23 10:28:56;;;;;;;5.60;2.70;;;21.50;99.90;;;;;;6106850;23;20392;-69
2021/06/23 10:31:24;;;;;;;6.43;3.00;;;21.50;1.00;;;;;;6107280;23;20470;-71
2021/06/23 10:33:51;;;;;;;3.43;2.60;;;21.90;99.90;;;;;;6106275;23;20462;-70
2021/06/23 10:36:17;;;;;;;3.47;2.60;;;22.20;99.90;;;;;;6097601;23;20423;-67
2021/06/23 10:38:45;;;;;;;4.00;2.30;;;22.50;1.00;;;;;;6120245;23;20457;-73
2021/06/23 10:41:11;;;;;;;2.60;2.40;;;22.70;9.70;;;;;;6107055;23;20470;-65
2021/06/23 10:43:37;;;;;;;5.37;2.47;;;22.10;99.90;;;;;;6106998;23;20478;-67
2021/06/23 10:46:03;;;;;;;6.90;3.20;;;21.30;99.90;;;;;;6097635;23;20518;-69
2021/06/23 10:48:29;;;;;;;4.23;2.57;;;21.00;99.90;;;;;;6071751;23;20403;-70
2021/06/23 10:50:54;;;;;;;5.70;3.23;;;21.00;1.00;;;;;;6106550;23;20392;-71
2021/06/23 10:53:35;;;;;;;5.60;2.80;;;21.10;98.50;;;;;;6107022;23;20231;-69
2021/06/23 10:56:05;;;;;;;7.50;3.53;;;21.20;25.50;;;;;;6106847;23;20136;-70
2021/06/23 10:58:33;;;;;;;4.53;3.10;;;21.00;99.90;;;;;;6106891;23;20418;-70
2021/06/23 11:01:14;;;;;;;4.20;2.73;;;21.50;1.60;;;;;;6106955;23;20402;-70
2021/06/23 11:04:05;;;;;;;3.17;2.87;;;21.90;99.90;;;;;;6096907;23;20372;-71
2021/06/23 11:06:46;;;;;;;4.53;3.50;;;22.10;99.90;;;;;;6094230;23;20787;-70
2021/06/23 11:09:22;;;;;;;4.73;2.70;;;22.70;99.90;;;;;;6106742;23;20506;-70
2021/06/23 11:11:48;;;;;;;3.73;2.83;;;23.00;54.10;;;;;;6106830;23;20399;-70
2021/06/23 11:14:16;;;;;;;5.90;4.30;;;22.60;99.90;;;;;;6096854;23;20403;-70
2021/06/23 11:16:41;;;;;;;3.23;2.90;;;22.40;99.90;;;;;;6097402;23;20842;-69
2021/06/23 11:19:08;;;;;;;6.23;2.97;;;21.40;1.00;;;;;;6107134;23;20477;-70
2021/06/23 11:21:34;;;;;;;6.87;3.37;;;21.70;1.00;;;;;;6106958;23;20659;-71
2021/06/23 11:24:02;;;;;;;6.20;3.40;;;21.80;1.00;;;;;;6106760;23;20423;-70
2021/06/23 11:26:27;;;;;;;3.33;2.93;;;21.50;1.00;;;;;;6106634;23;20511;-70
2021/06/23 11:29:13;;;;;;;5.23;3.20;;;21.90;1.00;;;;;;6109108;23;20422;-70
2021/06/23 11:31:49;;;;;;;3.10;2.57;;;22.30;1.00;;;;;;6097841;23;20234;-70
2021/06/23 11:34:37;;;;;;;4.50;3.00;;;23.20;65.70;;;;;;6108064;23;20375;-70
2021/06/23 11:37:04;;;;;;;4.50;3.17;;;23.70;1.00;;;;;;6108430;23;20826;-70
2021/06/23 11:39:30;;;;;;;6.50;3.00;;;23.80;1.00;;;;;;6108381;23;20458;-70
2021/06/23 11:41:56;;;;;;;5.57;2.50;;;23.60;22.60;;;;;;6108455;23;20474;-70
2021/06/23 11:44:21;;;;;;;6.53;2.80;;;23.20;29.50;;;;;;6108250;23;20152;-70
2021/06/23 11:46:47;;;;;;;6.07;2.93;;;23.50;1.00;;;;;;6108467;23;20191;-71
2021/06/23 11:49:12;;;;;;;5.13;2.50;;;23.90;1.00;;;;;;6097468;23;20159;-70
2021/06/23 11:51:39;;;;;;;7.20;3.30;;;23.80;1.00;;;;;;6108503;23;20173;-71
2021/06/23 11:54:05;;;;;;;8.13;3.57;;;23.40;10.10;;;;;;6108306;23;20155;-71
2021/06/23 11:56:31;;;;;;;4.10;2.83;;;23.80;1.00;;;;;;6108215;23;20387;-70
2021/06/23 11:58:57;;;;;;;7.00;3.20;;;23.20;99.90;;;;;;6108224;23;20784;-70
2021/06/23 12:01:23;;;;;;;6.53;3.17;;;23.30;44.70;;;;;;6108230;23;20391;-70
2021/06/23 12:03:49;;;;;;;4.33;2.73;;;22.90;27.40;;;;;;6108642;23;20156;-75
2021/06/23 12:06:15;;;;;;;5.43;2.80;;;23.20;42.60;;;;;;6098312;23;20184;-71
2021/06/23 12:08:41;;;;;;;5.33;2.33;;;22.70;99.90;;;;;;6107450;23;20384;-70
2021/06/23 12:11:06;;;;;;;6.50;3.00;;;22.20;99.90;;;;;;6108067;23;20424;-70
2021/06/23 12:13:32;;;;;;;6.03;3.57;;;21.20;1.00;;;;;;6108010;23;20151;-70
2021/06/23 12:15:57;;;;;;;4.37;2.70;;;21.10;1.00;;;;;;6108007;23;20148;-68
2021/06/23 12:18:23;;;;;;;6.30;3.73;;;21.30;1.00;;;;;;6107740;23;20175;-68
2021/06/23 12:20:49;;;;;;;9.43;3.33;;;21.50;1.00;;;;;;6107729;23;20163;-65
2021/06/23 12:23:14;;;;;;;3.83;2.80;;;22.00;99.90;;;;;;6107983;23;20148;-63
2021/06/23 12:25:48;;;;;;;4.03;2.90;;;21.70;1.00;;;;;;6107205;23;20496;-64
2021/06/23 12:28:15;;;;;;;3.07;2.77;;;22.10;99.90;;;;;;6121374;23;20156;-70
2021/06/23 12:30:43;;;;;;;5.00;3.10;;;22.30;99.90;;;;;;6121436;23;20406;-66
2021/06/23 12:33:10;;;;;;;5.67;2.87;;;22.80;99.90;;;;;;6107833;23;20506;-67
2021/06/23 12:35:41;;;;;;;5.10;2.50;;;23.30;23.30;;;;;;6098378;23;20410;-68
2021/06/23 12:38:08;;;;;;;4.33;2.90;;;23.80;1.00;;;;;;6097693;23;20839;-66
2021/06/23 12:40:35;;;;;;;4.20;2.10;;;24.40;1.00;;;;;;6097750;23;20855;-67
2021/06/23 12:43:00;;;;;;;4.40;2.40;;;24.40;1.00;;;;;;6107892;23;20702;-67
2021/06/23 12:45:26;;;;;;;4.70;2.90;;;24.30;1.00;;;;;;6106657;23;20407;-67
2021/06/23 12:47:51;;;;;;;5.17;2.60;;;24.10;1.00;;;;;;6107507;23;20184;-66
2021/06/23 12:50:17;;;;;;;3.97;2.50;;;23.90;1.00;;;;;;6107538;23;20152;-65
2021/06/23 12:52:48;;;;;;;3.93;2.67;;;24.00;1.00;;;;;;6106096;23;20152;-64
2021/06/23 12:55:15;;;;;;;6.93;3.00;;;24.00;1.00;;;;;;6120633;23;20398;-65
2021/06/23 12:57:40;;;;;;;6.13;3.47;;;23.90;1.00;;;;;;6097316;23;20435;-67
2021/06/23 13:00:10;;;;;;;3.33;2.27;;;24.30;1.00;;;;;;6120474;23;20404;-66
2021/06/23 13:02:36;;;;;;;8.87;3.13;;;24.70;1.00;;;;;;6105951;23;20156;-66
2021/06/23 13:05:04;;;;;;;3.93;2.47;;;25.40;1.00;;;;;;6096249;23;20399;-62
2021/06/23 13:07:30;;;;;;;3.87;2.30;;;25.20;1.00;;;;;;6095924;23;20427;-65
2021/06/23 13:09:57;;;;;;;3.80;2.30;;;25.20;1.00;;;;;;6106678;23;20398;-63
2021/06/23 13:12:22;;;;;;;2.77;2.57;;;25.30;1.00;;;;;;6095550;23;20164;-62
2021/06/23 13:14:48;;;;;;;2.87;2.40;;;25.70;1.00;;;;;;6107259;23;20413;-66